sensor_id;sensor_type;location;lat;lon;timestamp;P1;durP1;ratioP1;P2;durP2;ratioP2
15295;SDS011;7749;49.964;7.890;2022-07-23T00:00:41;8.65;;;7.85;;
15295;SDS011;7749;49.964;7.890;2022-07-23T00:03:08;8.88;;;8.13;;
15295;SDS011;7749;49.964;7.890;2022-07-23T00:05:35;8.32;;;7.57;;
15295;SDS011;7749;49.964;7.890;2022-07-23T00:08:04;7.78;;;7.03;;
15295;SDS011;7749;49.964;7.890;2022-07-23T00:10:37;8.38;;;7.57;;
15295;SDS011;7749;49.964;7.890;2022-07-23T00:13:05;8.43;;;7.60;;
15295;SDS011;7749;49.964;7.890;2022-07-23T00:15:32;7.50;;;6.75;;
15295;SDS011;7749;49.964;7.890;2022-07-23T00:18:00;7.60;;;6.97;;
15295;SDS011;7749;49.964;7.890;2022-07-23T00:20:30;8.60;;;7.80;;
15295;SDS011;7749;49.964;7.890;2022-07-23T00:23:00;7.95;;;7.25;;
15295;SDS011;7749;49.964;7.890;2022-07-23T00:25:27;7.93;;;7.22;;
15295;SDS011;7749;49.964;7.890;2022-07-23T00:27:57;7.75;;;7.05;;
15295;SDS011;7749;49.964;7.890;2022-07-23T00:30:26;8.63;;;7.82;;
15295;SDS011;7749;49.964;7.890;2022-07-23T00:32:57;10.32;;;8.68;;
15295;SDS011;7749;49.964;7.890;2022-07-23T00:35:27;8.32;;;7.53;;
15295;SDS011;7749;49.964;7.890;2022-07-23T00:37:55;8.45;;;7.75;;
15295;SDS011;7749;49.964;7.890;2022-07-23T00:40:24;8.43;;;7.45;;
15295;SDS011;7749;49.964;7.890;2022-07-23T00:42:52;10.13;;;8.15;;
15295;SDS011;7749;49.964;7.890;2022-07-23T00:45:19;8.35;;;7.65;;
15295;SDS011;7749;49.964;7.890;2022-07-23T00:47:47;8.00;;;7.38;;
15295;SDS011;7749;49.964;7.890;2022-07-23T00:50:15;8.75;;;7.97;;
15295;SDS011;7749;49.964;7.890;2022-07-23T00:52:42;9.20;;;7.88;;
15295;SDS011;7749;49.964;7.890;2022-07-23T00:55:10;9.68;;;8.40;;
15295;SDS011;7749;49.964;7.890;2022-07-23T00:57:38;8.95;;;8.05;;
15295;SDS011;7749;49.964;7.890;2022-07-23T01:00:11;9.52;;;8.50;;
15295;SDS011;7749;49.964;7.890;2022-07-23T01:02:40;9.23;;;8.43;;
15295;SDS011;7749;49.964;7.890;2022-07-23T01:05:08;9.80;;;9.00;;
15295;SDS011;7749;49.964;7.890;2022-07-23T01:07:36;9.80;;;8.80;;
15295;SDS011;7749;49.964;7.890;2022-07-23T01:10:04;10.35;;;9.45;;
15295;SDS011;7749;49.964;7.890;2022-07-23T01:12:53;9.70;;;8.68;;
15295;SDS011;7749;49.964;7.890;2022-07-23T01:15:21;10.27;;;9.32;;
15295;SDS011;7749;49.964;7.890;2022-07-23T01:17:48;10.30;;;9.40;;
15295;SDS011;7749;49.964;7.890;2022-07-23T01:20:16;10.27;;;9.27;;
15295;SDS011;7749;49.964;7.890;2022-07-23T01:22:44;10.02;;;9.20;;
15295;SDS011;7749;49.964;7.890;2022-07-23T01:25:12;9.70;;;8.80;;
15295;SDS011;7749;49.964;7.890;2022-07-23T01:27:40;10.40;;;9.30;;
15295;SDS011;7749;49.964;7.890;2022-07-23T01:30:08;10.43;;;9.43;;
15295;SDS011;7749;49.964;7.890;2022-07-23T01:32:36;11.45;;;10.13;;
15295;SDS011;7749;49.964;7.890;2022-07-23T01:35:03;10.50;;;9.50;;
15295;SDS011;7749;49.964;7.890;2022-07-23T01:37:34;9.63;;;8.75;;
15295;SDS011;7749;49.964;7.890;2022-07-23T01:40:02;11.65;;;10.00;;
15295;SDS011;7749;49.964;7.890;2022-07-23T01:42:31;10.18;;;9.13;;
15295;SDS011;7749;49.964;7.890;2022-07-23T01:45:01;11.10;;;10.10;;
15295;SDS011;7749;49.964;7.890;2022-07-23T01:47:28;10.73;;;9.73;;
15295;SDS011;7749;49.964;7.890;2022-07-23T01:49:56;10.63;;;9.73;;
15295;SDS011;7749;49.964;7.890;2022-07-23T01:52:23;11.10;;;10.00;;
15295;SDS011;7749;49.964;7.890;2022-07-23T01:54:53;12.02;;;10.73;;
15295;SDS011;7749;49.964;7.890;2022-07-23T01:57:21;11.18;;;10.07;;
15295;SDS011;7749;49.964;7.890;2022-07-23T01:59:48;11.45;;;10.35;;
15295;SDS011;7749;49.964;7.890;2022-07-23T02:02:15;12.00;;;10.73;;
15295;SDS011;7749;49.964;7.890;2022-07-23T02:04:43;10.60;;;9.57;;
15295;SDS011;7749;49.964;7.890;2022-07-23T02:07:10;11.73;;;10.63;;
15295;SDS011;7749;49.964;7.890;2022-07-23T02:09:37;11.63;;;10.52;;
15295;SDS011;7749;49.964;7.890;2022-07-23T02:12:05;12.27;;;11.07;;
15295;SDS011;7749;49.964;7.890;2022-07-23T02:14:32;12.25;;;10.88;;
15295;SDS011;7749;49.964;7.890;2022-07-23T02:17:00;11.55;;;10.25;;
15295;SDS011;7749;49.964;7.890;2022-07-23T02:19:27;12.30;;;11.20;;
15295;SDS011;7749;49.964;7.890;2022-07-23T02:21:55;12.45;;;11.15;;
15295;SDS011;7749;49.964;7.890;2022-07-23T02:24:22;12.00;;;10.90;;
15295;SDS011;7749;49.964;7.890;2022-07-23T02:26:49;12.77;;;11.48;;
15295;SDS011;7749;49.964;7.890;2022-07-23T02:29:17;12.68;;;11.07;;
15295;SDS011;7749;49.964;7.890;2022-07-23T02:31:44;13.35;;;12.05;;
15295;SDS011;7749;49.964;7.890;2022-07-23T02:34:12;11.68;;;10.57;;
15295;SDS011;7749;49.964;7.890;2022-07-23T02:36:39;12.23;;;10.93;;
15295;SDS011;7749;49.964;7.890;2022-07-23T02:39:07;12.38;;;11.10;;
15295;SDS011;7749;49.964;7.890;2022-07-23T02:41:34;11.55;;;10.48;;
15295;SDS011;7749;49.964;7.890;2022-07-23T02:44:02;12.70;;;11.40;;
15295;SDS011;7749;49.964;7.890;2022-07-23T02:46:29;12.38;;;11.18;;
15295;SDS011;7749;49.964;7.890;2022-07-23T02:48:57;13.13;;;11.88;;
15295;SDS011;7749;49.964;7.890;2022-07-23T02:51:25;13.18;;;11.93;;
15295;SDS011;7749;49.964;7.890;2022-07-23T02:53:52;12.60;;;11.30;;
15295;SDS011;7749;49.964;7.890;2022-07-23T02:56:22;13.10;;;11.87;;
15295;SDS011;7749;49.964;7.890;2022-07-23T02:58:50;13.75;;;12.02;;
15295;SDS011;7749;49.964;7.890;2022-07-23T03:01:17;14.55;;;11.40;;
15295;SDS011;7749;49.964;7.890;2022-07-23T03:03:46;12.93;;;11.57;;
15295;SDS011;7749;49.964;7.890;2022-07-23T03:06:14;13.30;;;12.02;;
15295;SDS011;7749;49.964;7.890;2022-07-23T03:08:41;13.68;;;12.27;;
15295;SDS011;7749;49.964;7.890;2022-07-23T03:11:09;13.35;;;11.98;;
15295;SDS011;7749;49.964;7.890;2022-07-23T03:13:38;12.55;;;11.25;;
15295;SDS011;7749;49.964;7.890;2022-07-23T03:16:07;13.67;;;12.43;;
15295;SDS011;7749;49.964;7.890;2022-07-23T03:18:34;14.02;;;12.63;;
15295;SDS011;7749;49.964;7.890;2022-07-23T03:21:07;14.10;;;12.70;;
15295;SDS011;7749;49.964;7.890;2022-07-23T03:23:34;14.17;;;12.67;;
15295;SDS011;7749;49.964;7.890;2022-07-23T03:26:02;15.43;;;12.15;;
15295;SDS011;7749;49.964;7.890;2022-07-23T03:28:30;13.25;;;11.88;;
15295;SDS011;7749;49.964;7.890;2022-07-23T03:30:57;14.07;;;12.85;;
15295;SDS011;7749;49.964;7.890;2022-07-23T03:33:25;13.80;;;12.23;;
15295;SDS011;7749;49.964;7.890;2022-07-23T03:35:52;13.52;;;12.23;;
15295;SDS011;7749;49.964;7.890;2022-07-23T03:38:20;13.68;;;12.38;;
15295;SDS011;7749;49.964;7.890;2022-07-23T03:40:47;15.13;;;13.18;;
15295;SDS011;7749;49.964;7.890;2022-07-23T03:43:17;13.50;;;12.20;;
15295;SDS011;7749;49.964;7.890;2022-07-23T03:45:44;14.93;;;13.63;;
15295;SDS011;7749;49.964;7.890;2022-07-23T03:48:12;13.38;;;12.13;;
15295;SDS011;7749;49.964;7.890;2022-07-23T03:50:42;14.63;;;13.20;;
15295;SDS011;7749;49.964;7.890;2022-07-23T03:53:09;13.85;;;12.57;;
15295;SDS011;7749;49.964;7.890;2022-07-23T03:55:37;13.53;;;12.23;;
15295;SDS011;7749;49.964;7.890;2022-07-23T03:58:06;14.45;;;12.90;;
15295;SDS011;7749;49.964;7.890;2022-07-23T04:00:33;14.40;;;13.00;;
15295;SDS011;7749;49.964;7.890;2022-07-23T04:03:01;14.67;;;13.17;;
15295;SDS011;7749;49.964;7.890;2022-07-23T04:05:28;14.03;;;12.63;;
15295;SDS011;7749;49.964;7.890;2022-07-23T04:07:56;15.02;;;13.23;;
15295;SDS011;7749;49.964;7.890;2022-07-23T04:10:23;14.83;;;13.17;;
15295;SDS011;7749;49.964;7.890;2022-07-23T04:12:51;15.53;;;13.93;;
15295;SDS011;7749;49.964;7.890;2022-07-23T04:15:18;16.03;;;13.47;;
15295;SDS011;7749;49.964;7.890;2022-07-23T04:17:45;14.48;;;13.02;;
15295;SDS011;7749;49.964;7.890;2022-07-23T04:20:13;14.00;;;12.60;;
15295;SDS011;7749;49.964;7.890;2022-07-23T04:22:40;14.80;;;13.20;;
15295;SDS011;7749;49.964;7.890;2022-07-23T04:25:08;13.65;;;12.25;;
15295;SDS011;7749;49.964;7.890;2022-07-23T04:27:35;14.45;;;12.88;;
15295;SDS011;7749;49.964;7.890;2022-07-23T04:30:03;13.80;;;12.40;;
15295;SDS011;7749;49.964;7.890;2022-07-23T04:32:30;14.48;;;12.98;;
15295;SDS011;7749;49.964;7.890;2022-07-23T04:34:58;13.45;;;12.10;;
15295;SDS011;7749;49.964;7.890;2022-07-23T04:37:25;13.10;;;11.80;;
15295;SDS011;7749;49.964;7.890;2022-07-23T04:39:52;13.25;;;11.93;;
15295;SDS011;7749;49.964;7.890;2022-07-23T04:42:20;13.90;;;12.57;;
15295;SDS011;7749;49.964;7.890;2022-07-23T04:44:47;13.50;;;12.20;;
15295;SDS011;7749;49.964;7.890;2022-07-23T04:47:15;13.73;;;12.40;;
15295;SDS011;7749;49.964;7.890;2022-07-23T04:49:43;13.55;;;12.00;;
15295;SDS011;7749;49.964;7.890;2022-07-23T04:52:10;13.73;;;12.43;;
15295;SDS011;7749;49.964;7.890;2022-07-23T04:54:37;12.98;;;11.68;;
15295;SDS011;7749;49.964;7.890;2022-07-23T04:57:05;13.43;;;12.23;;
15295;SDS011;7749;49.964;7.890;2022-07-23T04:59:32;12.52;;;11.32;;
15295;SDS011;7749;49.964;7.890;2022-07-23T05:01:59;12.55;;;11.32;;
15295;SDS011;7749;49.964;7.890;2022-07-23T05:04:27;12.55;;;11.35;;
15295;SDS011;7749;49.964;7.890;2022-07-23T05:06:58;12.57;;;11.38;;
15295;SDS011;7749;49.964;7.890;2022-07-23T05:09:25;13.48;;;11.90;;
15295;SDS011;7749;49.964;7.890;2022-07-23T05:11:52;12.63;;;11.15;;
15295;SDS011;7749;49.964;7.890;2022-07-23T05:14:20;13.13;;;11.75;;
15295;SDS011;7749;49.964;7.890;2022-07-23T05:16:47;12.43;;;11.00;;
15295;SDS011;7749;49.964;7.890;2022-07-23T05:19:14;12.00;;;10.90;;
15295;SDS011;7749;49.964;7.890;2022-07-23T05:21:42;12.23;;;11.02;;
15295;SDS011;7749;49.964;7.890;2022-07-23T05:24:09;11.80;;;10.68;;
15295;SDS011;7749;49.964;7.890;2022-07-23T05:26:36;11.82;;;10.73;;
15295;SDS011;7749;49.964;7.890;2022-07-23T05:29:04;11.85;;;10.63;;
15295;SDS011;7749;49.964;7.890;2022-07-23T05:31:32;12.63;;;11.40;;
15295;SDS011;7749;49.964;7.890;2022-07-23T05:34:00;12.43;;;11.18;;
15295;SDS011;7749;49.964;7.890;2022-07-23T05:36:27;12.27;;;11.05;;
15295;SDS011;7749;49.964;7.890;2022-07-23T05:38:54;12.55;;;11.25;;
15295;SDS011;7749;49.964;7.890;2022-07-23T05:41:22;12.13;;;10.88;;
15295;SDS011;7749;49.964;7.890;2022-07-23T05:43:49;11.43;;;10.32;;
15295;SDS011;7749;49.964;7.890;2022-07-23T05:46:17;11.40;;;10.43;;
15295;SDS011;7749;49.964;7.890;2022-07-23T05:48:44;11.73;;;10.73;;
15295;SDS011;7749;49.964;7.890;2022-07-23T05:51:20;12.68;;;11.48;;
15295;SDS011;7749;49.964;7.890;2022-07-23T05:53:51;12.15;;;10.52;;
15295;SDS011;7749;49.964;7.890;2022-07-23T05:56:19;12.23;;;11.02;;
15295;SDS011;7749;49.964;7.890;2022-07-23T05:58:47;11.73;;;10.63;;
15295;SDS011;7749;49.964;7.890;2022-07-23T06:01:15;11.88;;;10.88;;
15295;SDS011;7749;49.964;7.890;2022-07-23T06:03:42;12.05;;;10.93;;
15295;SDS011;7749;49.964;7.890;2022-07-23T06:06:10;12.98;;;11.27;;
15295;SDS011;7749;49.964;7.890;2022-07-23T06:08:37;12.45;;;10.93;;
15295;SDS011;7749;49.964;7.890;2022-07-23T06:11:04;12.20;;;11.00;;
15295;SDS011;7749;49.964;7.890;2022-07-23T06:13:35;11.55;;;10.32;;
15295;SDS011;7749;49.964;7.890;2022-07-23T06:16:02;12.18;;;10.88;;
15295;SDS011;7749;49.964;7.890;2022-07-23T06:18:30;11.73;;;10.73;;
15295;SDS011;7749;49.964;7.890;2022-07-23T06:20:57;13.48;;;11.07;;
15295;SDS011;7749;49.964;7.890;2022-07-23T06:23:26;12.68;;;11.20;;
15295;SDS011;7749;49.964;7.890;2022-07-23T06:25:54;12.45;;;10.60;;
15295;SDS011;7749;49.964;7.890;2022-07-23T06:28:21;11.55;;;10.55;;
15295;SDS011;7749;49.964;7.890;2022-07-23T06:30:48;12.43;;;11.13;;
15295;SDS011;7749;49.964;7.890;2022-07-23T06:33:16;12.45;;;11.25;;
15295;SDS011;7749;49.964;7.890;2022-07-23T06:35:43;12.25;;;11.05;;
15295;SDS011;7749;49.964;7.890;2022-07-23T06:38:11;11.30;;;10.13;;
15295;SDS011;7749;49.964;7.890;2022-07-23T06:40:39;12.68;;;11.48;;
15295;SDS011;7749;49.964;7.890;2022-07-23T06:43:07;13.15;;;11.07;;
15295;SDS011;7749;49.964;7.890;2022-07-23T06:45:34;11.55;;;10.43;;
15295;SDS011;7749;49.964;7.890;2022-07-23T06:48:01;11.27;;;10.02;;
15295;SDS011;7749;49.964;7.890;2022-07-23T06:50:29;17.98;;;12.25;;
15295;SDS011;7749;49.964;7.890;2022-07-23T06:52:57;11.88;;;10.73;;
15295;SDS011;7749;49.964;7.890;2022-07-23T06:55:24;12.57;;;10.55;;
15295;SDS011;7749;49.964;7.890;2022-07-23T06:57:51;11.45;;;10.20;;
15295;SDS011;7749;49.964;7.890;2022-07-23T07:00:19;11.02;;;10.00;;
15295;SDS011;7749;49.964;7.890;2022-07-23T07:02:46;10.85;;;9.85;;
15295;SDS011;7749;49.964;7.890;2022-07-23T07:05:14;10.30;;;9.40;;
15295;SDS011;7749;49.964;7.890;2022-07-23T07:07:41;10.75;;;9.75;;
15295;SDS011;7749;49.964;7.890;2022-07-23T07:10:08;11.38;;;10.27;;
15295;SDS011;7749;49.964;7.890;2022-07-23T07:12:41;10.75;;;9.75;;
15295;SDS011;7749;49.964;7.890;2022-07-23T07:15:09;10.93;;;9.80;;
15295;SDS011;7749;49.964;7.890;2022-07-23T07:17:36;11.50;;;10.30;;
15295;SDS011;7749;49.964;7.890;2022-07-23T07:20:06;10.57;;;9.57;;
15295;SDS011;7749;49.964;7.890;2022-07-23T07:22:38;11.63;;;9.80;;
15295;SDS011;7749;49.964;7.890;2022-07-23T07:25:05;10.55;;;9.65;;
15295;SDS011;7749;49.964;7.890;2022-07-23T07:27:33;10.88;;;9.80;;
15295;SDS011;7749;49.964;7.890;2022-07-23T07:30:01;10.82;;;9.60;;
15295;SDS011;7749;49.964;7.890;2022-07-23T07:32:30;9.55;;;8.60;;
15295;SDS011;7749;49.964;7.890;2022-07-23T07:35:19;10.63;;;9.63;;
15295;SDS011;7749;49.964;7.890;2022-07-23T07:37:46;10.23;;;9.23;;
15295;SDS011;7749;49.964;7.890;2022-07-23T07:40:13;10.00;;;9.00;;
15295;SDS011;7749;49.964;7.890;2022-07-23T07:42:44;10.35;;;9.45;;
15295;SDS011;7749;49.964;7.890;2022-07-23T07:45:16;9.65;;;8.80;;
15295;SDS011;7749;49.964;7.890;2022-07-23T07:47:46;10.60;;;9.60;;
15295;SDS011;7749;49.964;7.890;2022-07-23T07:50:14;10.05;;;9.07;;
15295;SDS011;7749;49.964;7.890;2022-07-23T07:52:41;10.00;;;9.10;;
15295;SDS011;7749;49.964;7.890;2022-07-23T07:55:09;10.43;;;9.32;;
15295;SDS011;7749;49.964;7.890;2022-07-23T07:57:37;9.75;;;8.85;;
15295;SDS011;7749;49.964;7.890;2022-07-23T08:00:05;9.00;;;8.20;;
15295;SDS011;7749;49.964;7.890;2022-07-23T08:02:41;9.45;;;8.55;;
15295;SDS011;7749;49.964;7.890;2022-07-23T08:05:20;9.20;;;8.32;;
15295;SDS011;7749;49.964;7.890;2022-07-23T08:07:57;9.43;;;8.50;;
15295;SDS011;7749;49.964;7.890;2022-07-23T08:10:29;8.50;;;7.78;;
15295;SDS011;7749;49.964;7.890;2022-07-23T08:12:58;9.27;;;8.38;;
15295;SDS011;7749;49.964;7.890;2022-07-23T08:15:28;8.90;;;8.00;;
15295;SDS011;7749;49.964;7.890;2022-07-23T08:17:56;9.60;;;8.63;;
15295;SDS011;7749;49.964;7.890;2022-07-23T08:20:25;9.68;;;8.50;;
15295;SDS011;7749;49.964;7.890;2022-07-23T08:22:58;9.32;;;8.20;;
15295;SDS011;7749;49.964;7.890;2022-07-23T08:25:33;8.52;;;7.72;;
15295;SDS011;7749;49.964;7.890;2022-07-23T08:28:06;8.65;;;7.85;;
15295;SDS011;7749;49.964;7.890;2022-07-23T08:30:35;8.15;;;7.45;;
15295;SDS011;7749;49.964;7.890;2022-07-23T08:33:05;8.38;;;7.50;;
15295;SDS011;7749;49.964;7.890;2022-07-23T08:35:59;8.80;;;7.65;;
15295;SDS011;7749;49.964;7.890;2022-07-23T08:38:30;8.85;;;8.05;;
15295;SDS011;7749;49.964;7.890;2022-07-23T08:41:04;8.98;;;7.32;;
15295;SDS011;7749;49.964;7.890;2022-07-23T08:43:34;7.95;;;7.18;;
15295;SDS011;7749;49.964;7.890;2022-07-23T08:46:03;8.52;;;7.63;;
15295;SDS011;7749;49.964;7.890;2022-07-23T08:48:32;7.82;;;7.20;;
15295;SDS011;7749;49.964;7.890;2022-07-23T08:51:02;9.57;;;7.30;;
15295;SDS011;7749;49.964;7.890;2022-07-23T08:53:31;8.00;;;7.22;;
15295;SDS011;7749;49.964;7.890;2022-07-23T08:56:00;9.38;;;7.28;;
15295;SDS011;7749;49.964;7.890;2022-07-23T08:58:29;7.80;;;7.00;;
15295;SDS011;7749;49.964;7.890;2022-07-23T09:00:58;7.90;;;7.03;;
15295;SDS011;7749;49.964;7.890;2022-07-23T09:03:32;7.45;;;6.85;;
15295;SDS011;7749;49.964;7.890;2022-07-23T09:06:02;7.28;;;6.50;;
15295;SDS011;7749;49.964;7.890;2022-07-23T09:08:39;7.15;;;6.47;;
15295;SDS011;7749;49.964;7.890;2022-07-23T09:11:08;7.20;;;6.50;;
15295;SDS011;7749;49.964;7.890;2022-07-23T09:16:17;6.88;;;6.20;;
15295;SDS011;7749;49.964;7.890;2022-07-23T09:19:00;7.05;;;6.32;;
15295;SDS011;7749;49.964;7.890;2022-07-23T09:24:03;7.53;;;6.40;;
15295;SDS011;7749;49.964;7.890;2022-07-23T09:31:55;6.43;;;5.93;;
15295;SDS011;7749;49.964;7.890;2022-07-23T09:34:27;7.47;;;6.25;;
15295;SDS011;7749;49.964;7.890;2022-07-23T09:37:15;6.75;;;5.97;;
15295;SDS011;7749;49.964;7.890;2022-07-23T09:39:44;6.78;;;6.03;;
15295;SDS011;7749;49.964;7.890;2022-07-23T09:44:50;6.30;;;5.80;;
15295;SDS011;7749;49.964;7.890;2022-07-23T09:47:19;7.05;;;5.35;;
15295;SDS011;7749;49.964;7.890;2022-07-23T09:49:57;6.22;;;5.68;;
15295;SDS011;7749;49.964;7.890;2022-07-23T09:52:28;5.53;;;5.07;;
15295;SDS011;7749;49.964;7.890;2022-07-23T09:55:03;6.07;;;5.38;;
15295;SDS011;7749;49.964;7.890;2022-07-23T09:57:31;7.05;;;5.20;;
15295;SDS011;7749;49.964;7.890;2022-07-23T10:00:00;5.43;;;4.85;;
15295;SDS011;7749;49.964;7.890;2022-07-23T10:02:31;5.90;;;5.40;;
15295;SDS011;7749;49.964;7.890;2022-07-23T10:04:59;5.85;;;5.35;;
15295;SDS011;7749;49.964;7.890;2022-07-23T10:07:31;5.95;;;5.18;;
15295;SDS011;7749;49.964;7.890;2022-07-23T10:10:01;6.38;;;5.78;;
15295;SDS011;7749;49.964;7.890;2022-07-23T10:12:30;5.15;;;4.75;;
15295;SDS011;7749;49.964;7.890;2022-07-23T10:15:01;5.75;;;5.13;;
15295;SDS011;7749;49.964;7.890;2022-07-23T10:17:28;5.72;;;5.22;;
15295;SDS011;7749;49.964;7.890;2022-07-23T10:19:56;5.43;;;4.90;;
15295;SDS011;7749;49.964;7.890;2022-07-23T10:25:04;5.50;;;5.07;;
15295;SDS011;7749;49.964;7.890;2022-07-23T10:27:53;6.00;;;5.38;;
15295;SDS011;7749;49.964;7.890;2022-07-23T10:38:54;5.35;;;4.80;;
15295;SDS011;7749;49.964;7.890;2022-07-23T10:41:39;5.47;;;5.03;;
15295;SDS011;7749;49.964;7.890;2022-07-23T10:44:15;5.63;;;5.00;;
15295;SDS011;7749;49.964;7.890;2022-07-23T10:49:38;5.85;;;5.35;;
15295;SDS011;7749;49.964;7.890;2022-07-23T10:54:41;5.95;;;5.35;;
15295;SDS011;7749;49.964;7.890;2022-07-23T10:57:13;6.00;;;5.50;;
15295;SDS011;7749;49.964;7.890;2022-07-23T11:02:28;5.95;;;5.38;;
15295;SDS011;7749;49.964;7.890;2022-07-23T11:04:59;6.10;;;5.60;;
15295;SDS011;7749;49.964;7.890;2022-07-23T11:07:28;6.03;;;5.53;;
15295;SDS011;7749;49.964;7.890;2022-07-23T11:09:55;5.78;;;5.28;;
15295;SDS011;7749;49.964;7.890;2022-07-23T11:17:34;5.75;;;5.25;;
15295;SDS011;7749;49.964;7.890;2022-07-23T11:25:13;6.47;;;5.75;;
15295;SDS011;7749;49.964;7.890;2022-07-23T11:28:07;5.65;;;5.25;;
15295;SDS011;7749;49.964;7.890;2022-07-23T11:30:37;5.68;;;5.15;;
15295;SDS011;7749;49.964;7.890;2022-07-23T11:35:36;6.45;;;5.95;;
15295;SDS011;7749;49.964;7.890;2022-07-23T11:38:15;6.35;;;5.85;;
15295;SDS011;7749;49.964;7.890;2022-07-23T11:40:49;6.60;;;6.10;;
15295;SDS011;7749;49.964;7.890;2022-07-23T11:43:21;6.95;;;6.35;;
15295;SDS011;7749;49.964;7.890;2022-07-23T11:45:51;6.53;;;6.13;;
15295;SDS011;7749;49.964;7.890;2022-07-23T11:48:27;6.60;;;6.00;;
15295;SDS011;7749;49.964;7.890;2022-07-23T11:50:56;6.90;;;6.40;;
15295;SDS011;7749;49.964;7.890;2022-07-23T11:53:28;6.70;;;6.10;;
15295;SDS011;7749;49.964;7.890;2022-07-23T11:56:06;6.68;;;6.18;;
15295;SDS011;7749;49.964;7.890;2022-07-23T11:58:35;6.70;;;6.20;;
15295;SDS011;7749;49.964;7.890;2022-07-23T12:01:03;6.68;;;6.15;;
15295;SDS011;7749;49.964;7.890;2022-07-23T12:03:31;6.63;;;6.13;;
15295;SDS011;7749;49.964;7.890;2022-07-23T12:06:00;6.28;;;5.88;;
15295;SDS011;7749;49.964;7.890;2022-07-23T12:08:27;6.18;;;5.78;;
15295;SDS011;7749;49.964;7.890;2022-07-23T12:10:56;6.82;;;6.40;;
15295;SDS011;7749;49.964;7.890;2022-07-23T12:13:23;6.40;;;6.00;;
15295;SDS011;7749;49.964;7.890;2022-07-23T12:15:52;6.90;;;6.35;;
15295;SDS011;7749;49.964;7.890;2022-07-23T12:18:21;6.90;;;6.40;;
15295;SDS011;7749;49.964;7.890;2022-07-23T12:20:51;7.40;;;6.78;;
15295;SDS011;7749;49.964;7.890;2022-07-23T12:23:21;7.55;;;7.05;;
15295;SDS011;7749;49.964;7.890;2022-07-23T12:25:51;7.25;;;6.75;;
15295;SDS011;7749;49.964;7.890;2022-07-23T12:28:20;7.15;;;6.55;;
15295;SDS011;7749;49.964;7.890;2022-07-23T12:30:52;7.50;;;7.00;;
15295;SDS011;7749;49.964;7.890;2022-07-23T12:33:21;7.75;;;6.97;;
15295;SDS011;7749;49.964;7.890;2022-07-23T12:35:52;6.90;;;6.40;;
15295;SDS011;7749;49.964;7.890;2022-07-23T12:38:23;7.25;;;6.65;;
15295;SDS011;7749;49.964;7.890;2022-07-23T12:40:53;7.10;;;6.40;;
15295;SDS011;7749;49.964;7.890;2022-07-23T12:51:17;6.70;;;6.20;;
15295;SDS011;7749;49.964;7.890;2022-07-23T12:53:48;6.55;;;5.88;;
15295;SDS011;7749;49.964;7.890;2022-07-23T12:56:30;6.90;;;6.25;;
15295;SDS011;7749;49.964;7.890;2022-07-23T12:59:08;7.35;;;6.75;;
15295;SDS011;7749;49.964;7.890;2022-07-23T13:01:41;6.78;;;6.28;;
15295;SDS011;7749;49.964;7.890;2022-07-23T13:04:15;7.20;;;6.70;;
15295;SDS011;7749;49.964;7.890;2022-07-23T13:09:19;7.00;;;6.50;;
15295;SDS011;7749;49.964;7.890;2022-07-23T13:11:48;7.32;;;6.82;;
15295;SDS011;7749;49.964;7.890;2022-07-23T13:14:17;6.80;;;6.40;;
15295;SDS011;7749;49.964;7.890;2022-07-23T13:16:48;7.53;;;6.43;;
15295;SDS011;7749;49.964;7.890;2022-07-23T13:19:16;6.57;;;6.18;;
15295;SDS011;7749;49.964;7.890;2022-07-23T13:21:45;6.93;;;6.50;;
15295;SDS011;7749;49.964;7.890;2022-07-23T13:24:12;7.38;;;6.78;;
15295;SDS011;7749;49.964;7.890;2022-07-23T13:26:40;6.80;;;6.20;;
15295;SDS011;7749;49.964;7.890;2022-07-23T13:29:08;7.78;;;7.10;;
15295;SDS011;7749;49.964;7.890;2022-07-23T13:31:36;7.65;;;6.97;;
15295;SDS011;7749;49.964;7.890;2022-07-23T13:34:05;6.85;;;6.43;;
15295;SDS011;7749;49.964;7.890;2022-07-23T13:36:34;6.50;;;6.07;;
15295;SDS011;7749;49.964;7.890;2022-07-23T13:39:05;6.70;;;6.13;;
15295;SDS011;7749;49.964;7.890;2022-07-23T13:41:36;6.40;;;5.88;;
15295;SDS011;7749;49.964;7.890;2022-07-23T13:44:17;7.45;;;6.97;;
15295;SDS011;7749;49.964;7.890;2022-07-23T13:46:46;6.55;;;6.00;;
15295;SDS011;7749;49.964;7.890;2022-07-23T13:49:13;6.53;;;6.03;;
15295;SDS011;7749;49.964;7.890;2022-07-23T13:51:44;6.18;;;5.78;;
15295;SDS011;7749;49.964;7.890;2022-07-23T13:54:11;6.53;;;6.03;;
15295;SDS011;7749;49.964;7.890;2022-07-23T13:56:40;6.60;;;6.20;;
15295;SDS011;7749;49.964;7.890;2022-07-23T13:59:07;6.28;;;5.78;;
15295;SDS011;7749;49.964;7.890;2022-07-23T14:01:34;6.15;;;5.57;;
15295;SDS011;7749;49.964;7.890;2022-07-23T14:04:24;6.20;;;5.80;;
15295;SDS011;7749;49.964;7.890;2022-07-23T14:06:54;6.28;;;5.78;;
15295;SDS011;7749;49.964;7.890;2022-07-23T14:09:22;6.03;;;5.63;;
15295;SDS011;7749;49.964;7.890;2022-07-23T14:11:51;5.80;;;5.32;;
15295;SDS011;7749;49.964;7.890;2022-07-23T14:14:19;5.90;;;5.53;;
15295;SDS011;7749;49.964;7.890;2022-07-23T14:16:48;6.07;;;5.60;;
15295;SDS011;7749;49.964;7.890;2022-07-23T14:19:17;5.65;;;5.25;;
15295;SDS011;7749;49.964;7.890;2022-07-23T14:21:45;6.25;;;5.75;;
15295;SDS011;7749;49.964;7.890;2022-07-23T14:24:12;5.80;;;5.30;;
15295;SDS011;7749;49.964;7.890;2022-07-23T14:26:39;7.05;;;6.43;;
15295;SDS011;7749;49.964;7.890;2022-07-23T14:29:07;5.75;;;5.25;;
15295;SDS011;7749;49.964;7.890;2022-07-23T14:31:35;5.88;;;5.38;;
15295;SDS011;7749;49.964;7.890;2022-07-23T14:34:03;5.82;;;5.20;;
15295;SDS011;7749;49.964;7.890;2022-07-23T14:36:30;5.30;;;4.80;;
15295;SDS011;7749;49.964;7.890;2022-07-23T14:38:58;5.22;;;4.93;;
15295;SDS011;7749;49.964;7.890;2022-07-23T14:41:27;5.07;;;4.68;;
15295;SDS011;7749;49.964;7.890;2022-07-23T14:43:56;5.38;;;5.07;;
15295;SDS011;7749;49.964;7.890;2022-07-23T14:46:23;5.47;;;5.07;;
15295;SDS011;7749;49.964;7.890;2022-07-23T14:48:51;5.47;;;5.05;;
15295;SDS011;7749;49.964;7.890;2022-07-23T14:51:18;5.22;;;4.93;;
15295;SDS011;7749;49.964;7.890;2022-07-23T14:53:48;5.10;;;4.80;;
15295;SDS011;7749;49.964;7.890;2022-07-23T14:56:16;5.57;;;5.13;;
15295;SDS011;7749;49.964;7.890;2022-07-23T14:58:44;5.22;;;4.82;;
15295;SDS011;7749;49.964;7.890;2022-07-23T15:01:14;5.22;;;4.90;;
15295;SDS011;7749;49.964;7.890;2022-07-23T15:03:45;5.43;;;5.10;;
15295;SDS011;7749;49.964;7.890;2022-07-23T15:06:13;5.20;;;4.90;;
15295;SDS011;7749;49.964;7.890;2022-07-23T15:08:43;5.32;;;4.93;;
15295;SDS011;7749;49.964;7.890;2022-07-23T15:11:13;5.32;;;4.93;;
15295;SDS011;7749;49.964;7.890;2022-07-23T15:13:41;5.30;;;4.82;;
15295;SDS011;7749;49.964;7.890;2022-07-23T15:16:09;5.18;;;4.78;;
15295;SDS011;7749;49.964;7.890;2022-07-23T15:18:36;4.95;;;4.57;;
15295;SDS011;7749;49.964;7.890;2022-07-23T15:21:07;5.72;;;5.20;;
15295;SDS011;7749;49.964;7.890;2022-07-23T15:23:37;5.15;;;4.68;;
15295;SDS011;7749;49.964;7.890;2022-07-23T15:26:06;5.22;;;4.82;;
15295;SDS011;7749;49.964;7.890;2022-07-23T15:28:34;5.53;;;5.13;;
15295;SDS011;7749;49.964;7.890;2022-07-23T15:31:03;5.30;;;4.90;;
15295;SDS011;7749;49.964;7.890;2022-07-23T15:33:34;5.53;;;4.70;;
15295;SDS011;7749;49.964;7.890;2022-07-23T15:36:03;6.03;;;5.30;;
15295;SDS011;7749;49.964;7.890;2022-07-23T15:38:34;5.00;;;4.70;;
15295;SDS011;7749;49.964;7.890;2022-07-23T15:41:01;4.50;;;4.10;;
15295;SDS011;7749;49.964;7.890;2022-07-23T15:43:30;5.13;;;4.65;;
15295;SDS011;7749;49.964;7.890;2022-07-23T15:45:58;5.65;;;5.25;;
15295;SDS011;7749;49.964;7.890;2022-07-23T15:48:26;5.50;;;4.97;;
15295;SDS011;7749;49.964;7.890;2022-07-23T15:50:54;5.80;;;5.30;;
15295;SDS011;7749;49.964;7.890;2022-07-23T15:53:21;5.20;;;4.82;;
15295;SDS011;7749;49.964;7.890;2022-07-23T15:56:03;5.75;;;5.30;;
15295;SDS011;7749;49.964;7.890;2022-07-23T15:58:35;5.40;;;4.90;;